createdAt,value
2023-04-28T00:01:41.953Z,3.65
2023-04-28T00:04:09.316Z,3.97
2023-04-28T00:06:37.284Z,3.38
2023-04-28T00:09:04.043Z,3.53
2023-04-28T00:11:30.802Z,4.20
2023-04-28T00:13:57.659Z,3.47
2023-04-28T00:16:24.567Z,3.63
2023-04-28T00:18:51.544Z,3.22
2023-04-28T00:21:18.232Z,3.20
2023-04-28T00:23:45.011Z,4.25
2023-04-28T00:26:12.589Z,3.95
2023-04-28T00:28:41.539Z,3.42
2023-04-28T00:31:16.332Z,3.95
2023-04-28T00:33:43.984Z,3.33
2023-04-28T00:36:11.268Z,3.20
2023-04-28T00:38:38.132Z,3.53
2023-04-28T00:41:05.019Z,3.55
2023-04-28T00:43:31.772Z,4.05
2023-04-28T00:45:58.547Z,3.58
2023-04-28T00:48:25.622Z,3.20
2023-04-28T00:50:52.406Z,3.72
2023-04-28T00:53:19.174Z,3.20
2023-04-28T00:55:46.663Z,3.13
2023-04-28T00:58:13.348Z,3.40
2023-04-28T01:00:40.777Z,3.25
2023-04-28T01:03:08.232Z,2.83
2023-04-28T01:05:35.187Z,2.88
2023-04-28T01:08:02.020Z,3.13
2023-04-28T01:10:28.813Z,3.15
2023-04-28T01:12:57.576Z,3.38
2023-04-28T01:15:24.548Z,3.38
2023-04-28T01:17:53.942Z,3.75
2023-04-28T01:20:20.859Z,3.13
2023-04-28T01:22:47.656Z,3.33
2023-04-28T01:25:14.942Z,3.30
2023-04-28T01:27:41.613Z,3.88
2023-04-28T01:30:11.710Z,4.88
2023-04-28T01:32:39.050Z,3.35
2023-04-28T01:35:06.015Z,3.55
2023-04-28T01:37:34.956Z,3.25
2023-04-28T01:40:01.681Z,3.60
2023-04-28T01:42:28.411Z,3.08
2023-04-28T01:44:55.132Z,3.85
2023-04-28T01:47:21.890Z,3.13
2023-04-28T01:49:50.217Z,3.08
2023-04-28T01:52:16.960Z,3.17
2023-04-28T01:54:43.839Z,3.35
2023-04-28T01:57:10.578Z,3.33
2023-04-28T01:59:37.564Z,3.40
2023-04-28T02:02:06.064Z,3.55
2023-04-28T02:04:33.685Z,2.75
2023-04-28T02:07:00.411Z,3.30
2023-04-28T02:09:27.144Z,3.05
2023-04-28T02:11:53.869Z,3.75
2023-04-28T02:14:21.316Z,3.10
2023-04-28T02:16:48.045Z,3.88
2023-04-28T02:19:15.815Z,3.42
2023-04-28T02:21:43.179Z,3.65
2023-04-28T02:24:09.878Z,3.60
2023-04-28T02:26:36.652Z,6.15
2023-04-28T02:29:06.328Z,3.33
2023-04-28T02:31:33.352Z,4.53
2023-04-28T02:34:00.201Z,4.03
2023-04-28T02:36:27.979Z,3.55
2023-04-28T02:38:54.844Z,3.72
2023-04-28T02:41:21.648Z,3.60
2023-04-28T02:43:48.397Z,3.38
2023-04-28T02:46:15.245Z,3.50
2023-04-28T02:48:42.250Z,2.90
2023-04-28T02:51:10.525Z,3.83
2023-04-28T02:53:39.777Z,3.53
2023-04-28T02:56:07.228Z,3.38
2023-04-28T02:58:34.014Z,3.72
2023-04-28T03:01:01.382Z,3.17
2023-04-28T03:03:28.374Z,3.08
2023-04-28T03:05:57.142Z,3.70
2023-04-28T03:08:24.096Z,3.75
2023-04-28T03:10:50.967Z,3.38
2023-04-28T03:13:17.756Z,4.00
2023-04-28T03:15:44.672Z,3.38
2023-04-28T03:18:11.868Z,3.45
2023-04-28T03:20:38.887Z,4.25
2023-04-28T03:23:05.597Z,3.53
2023-04-28T03:25:32.597Z,5.13
2023-04-28T03:27:59.319Z,4.20
2023-04-28T03:30:26.100Z,4.90
2023-04-28T03:32:52.878Z,5.75
2023-04-28T03:35:19.848Z,4.47
2023-04-28T03:37:46.860Z,5.85
2023-04-28T03:40:13.750Z,4.60
2023-04-28T03:43:12.745Z,4.78
2023-04-28T03:45:46.040Z,4.80
2023-04-28T03:48:12.808Z,5.13
2023-04-28T03:50:41.161Z,5.03
2023-04-28T03:53:08.510Z,5.43
2023-04-28T03:55:35.376Z,5.00
2023-04-28T03:58:02.629Z,4.82
2023-04-28T04:00:29.438Z,5.10
2023-04-28T04:02:57.191Z,4.72
2023-04-28T04:05:24.308Z,5.78
2023-04-28T04:07:51.148Z,5.03
2023-04-28T04:10:17.969Z,4.90
2023-04-28T04:12:45.385Z,5.30
2023-04-28T04:15:12.371Z,5.40
2023-04-28T04:17:40.229Z,5.80
2023-04-28T04:20:07.834Z,5.60
2023-04-28T04:22:34.510Z,4.40
2023-04-28T04:25:01.568Z,4.35
2023-04-28T04:27:28.464Z,3.83
2023-04-28T04:29:55.585Z,4.43
2023-04-28T04:32:22.328Z,5.15
2023-04-28T04:34:49.784Z,5.63
2023-04-28T04:37:16.838Z,4.47
2023-04-28T04:39:50.727Z,4.85
2023-04-28T04:45:00.346Z,4.22
2023-04-28T04:47:29.675Z,4.57
2023-04-28T04:49:56.804Z,5.03
2023-04-28T04:52:23.914Z,5.55
2023-04-28T04:54:51.402Z,4.53
2023-04-28T04:57:18.483Z,4.65
2023-04-28T05:00:05.163Z,5.60
2023-04-28T05:02:32.140Z,4.80
2023-04-28T05:05:12.101Z,5.15
2023-04-28T05:07:49.282Z,5.88
2023-04-28T05:10:16.207Z,5.85
2023-04-28T05:12:46.209Z,7.05
2023-04-28T05:15:16.911Z,4.75
2023-04-28T05:17:53.353Z,4.80
2023-04-28T05:20:20.788Z,5.28
2023-04-28T05:22:47.525Z,4.40
2023-04-28T05:25:14.435Z,5.38
2023-04-28T05:27:41.246Z,4.53
2023-04-28T05:30:10.703Z,4.65
2023-04-28T05:32:38.177Z,5.25
2023-04-28T05:35:05.462Z,4.28
2023-04-28T05:37:32.386Z,4.55
2023-04-28T05:39:59.136Z,4.82
2023-04-28T05:42:25.831Z,4.70
2023-04-28T05:44:52.488Z,4.88
2023-04-28T05:47:19.159Z,4.70
2023-04-28T05:49:46.038Z,5.80
2023-04-28T05:52:12.731Z,4.57
2023-04-28T05:54:39.434Z,4.60
2023-04-28T05:57:06.229Z,4.45
2023-04-28T05:59:33.314Z,5.15
2023-04-28T06:02:00.724Z,4.72
2023-04-28T06:04:28.251Z,4.78
2023-04-28T06:06:55.348Z,4.78
2023-04-28T06:09:22.521Z,4.78
2023-04-28T06:11:49.216Z,5.05
2023-04-28T06:14:16.713Z,4.70
2023-04-28T06:16:43.692Z,3.92
2023-04-28T06:19:10.544Z,4.65
2023-04-28T06:21:37.504Z,5.50
2023-04-28T06:24:04.255Z,4.78
2023-04-28T06:26:31.194Z,4.45
2023-04-28T06:28:57.896Z,5.22
2023-04-28T06:31:24.653Z,6.30
2023-04-28T06:33:53.569Z,4.60
2023-04-28T06:36:22.704Z,4.80
2023-04-28T06:38:49.450Z,5.00
2023-04-28T06:41:16.666Z,4.47
2023-04-28T06:43:46.979Z,4.40
2023-04-28T06:46:29.293Z,4.80
2023-04-28T06:48:56.660Z,4.68
2023-04-28T06:51:23.636Z,5.18
2023-04-28T06:53:53.429Z,4.40
2023-04-28T06:56:20.608Z,4.93
2023-04-28T06:58:48.449Z,4.20
2023-04-28T07:01:15.284Z,4.32
2023-04-28T07:03:42.201Z,4.40
2023-04-28T07:06:09.071Z,4.97
2023-04-28T07:08:37.097Z,4.10
2023-04-28T07:11:04.933Z,4.15
2023-04-28T07:13:32.524Z,4.50
2023-04-28T07:15:59.435Z,4.40
2023-04-28T07:18:26.181Z,4.53
2023-04-28T07:20:52.980Z,4.75
2023-04-28T07:23:19.742Z,6.00
2023-04-28T07:25:46.838Z,4.75
2023-04-28T07:28:14.322Z,4.50
2023-04-28T07:30:41.247Z,4.40
2023-04-28T07:33:08.001Z,4.43
2023-04-28T07:35:35.153Z,5.28
2023-04-28T07:38:02.603Z,4.22
2023-04-28T07:40:29.348Z,4.43
2023-04-28T07:42:56.111Z,4.72
2023-04-28T07:45:22.965Z,4.35
2023-04-28T07:47:49.742Z,4.65
2023-04-28T07:50:17.434Z,8.57
2023-04-28T07:52:44.751Z,4.93
2023-04-28T07:55:11.587Z,5.28
2023-04-28T07:57:38.277Z,7.15
2023-04-28T08:00:05.719Z,7.18
2023-04-28T08:02:38.765Z,5.00
2023-04-28T08:05:07.668Z,6.10
2023-04-28T08:07:34.686Z,5.18
2023-04-28T08:10:01.597Z,5.43
2023-04-28T08:12:28.516Z,5.05
2023-04-28T08:14:55.564Z,5.53
2023-04-28T08:17:22.279Z,5.53
2023-04-28T08:19:49.058Z,6.55
2023-04-28T08:22:16.024Z,5.45
2023-04-28T08:24:42.783Z,5.57
2023-04-28T08:27:09.511Z,5.07
2023-04-28T08:29:36.255Z,5.80
2023-04-28T08:32:03.029Z,6.72
2023-04-28T08:34:29.783Z,7.28
2023-04-28T08:36:56.509Z,8.43
2023-04-28T08:39:23.883Z,6.97
2023-04-28T08:41:50.917Z,6.40
2023-04-28T08:44:18.710Z,5.68
2023-04-28T08:46:47.049Z,5.13
2023-04-28T08:49:18.404Z,5.60
2023-04-28T08:51:50.700Z,4.55
2023-04-28T08:54:26.021Z,5.65
2023-04-28T08:56:53.138Z,5.13
2023-04-28T08:59:20.063Z,5.65
2023-04-28T09:01:49.759Z,5.68
2023-04-28T09:04:18.055Z,5.22
2023-04-28T09:06:46.600Z,6.20
2023-04-28T09:09:20.332Z,5.40
2023-04-28T09:12:03.264Z,5.22
2023-04-28T09:14:33.103Z,6.50
2023-04-28T09:16:59.877Z,5.72
2023-04-28T09:19:37.687Z,5.28
2023-04-28T09:22:21.858Z,5.78
2023-04-28T09:24:53.347Z,6.00
2023-04-28T09:27:26.981Z,5.63
2023-04-28T09:29:54.659Z,5.85
2023-04-28T09:32:23.270Z,4.90
2023-04-28T09:34:56.940Z,5.40
2023-04-28T09:37:25.933Z,5.07
2023-04-28T09:39:54.483Z,5.45
2023-04-28T09:42:38.255Z,6.10
2023-04-28T09:45:06.956Z,6.38
2023-04-28T09:47:36.056Z,5.32
2023-04-28T09:50:09.517Z,5.50
2023-04-28T09:52:36.878Z,6.45
2023-04-28T09:55:05.846Z,6.28
2023-04-28T09:57:35.183Z,6.47
2023-04-28T10:00:06.029Z,7.78
2023-04-28T10:02:42.658Z,7.15
2023-04-28T10:05:11.112Z,8.18
2023-04-28T10:07:39.362Z,7.60
2023-04-28T10:10:07.801Z,7.65
2023-04-28T10:12:35.317Z,9.13
2023-04-28T10:15:02.242Z,7.82
2023-04-28T10:17:29.905Z,7.80
2023-04-28T10:19:57.828Z,7.30
2023-04-28T10:22:52.304Z,6.95
2023-04-28T10:25:30.680Z,6.97
2023-04-28T10:27:58.080Z,6.72
2023-04-28T10:30:28.825Z,6.95
2023-04-28T10:33:14.322Z,7.07
2023-04-28T10:35:45.292Z,6.07
2023-04-28T10:38:14.400Z,5.55
2023-04-28T10:40:42.723Z,6.43
2023-04-28T10:43:10.481Z,4.68
2023-04-28T10:45:50.354Z,6.75
2023-04-28T10:48:17.336Z,4.65
2023-04-28T10:51:13.291Z,4.53
2023-04-28T10:53:43.787Z,6.10
2023-04-28T10:56:21.640Z,4.85
2023-04-28T10:58:51.813Z,5.03
2023-04-28T11:01:25.001Z,4.97
2023-04-28T11:04:14.139Z,5.43
2023-04-28T11:06:42.767Z,5.40
2023-04-28T11:09:12.427Z,5.25
2023-04-28T11:11:40.252Z,4.78
2023-04-28T11:14:19.161Z,4.00
2023-04-28T11:16:55.646Z,3.55
2023-04-28T11:19:42.843Z,4.03
2023-04-28T11:22:24.099Z,3.67
2023-04-28T11:25:00.936Z,2.95
2023-04-28T11:27:29.167Z,2.80
2023-04-28T11:29:56.117Z,2.90
2023-04-28T11:32:30.808Z,3.22
2023-04-28T11:34:57.628Z,3.50
2023-04-28T11:37:24.360Z,2.65
2023-04-28T11:39:52.188Z,3.22
2023-04-28T11:42:19.419Z,2.90
2023-04-28T11:44:53.202Z,2.05
2023-04-28T11:47:35.405Z,1.90
2023-04-28T11:50:03.427Z,1.55
2023-04-28T11:52:30.268Z,1.60
2023-04-28T11:54:59.383Z,1.50
2023-04-28T11:57:26.931Z,1.65
2023-04-28T11:59:53.990Z,1.45
2023-04-28T12:02:30.975Z,2.60
2023-04-28T12:05:22.594Z,1.85
2023-04-28T12:07:49.478Z,1.73
2023-04-28T12:10:17.412Z,1.30
2023-04-28T12:12:51.627Z,0.90
2023-04-28T12:15:21.942Z,2.25
2023-04-28T12:17:51.154Z,1.23
2023-04-28T12:20:36.680Z,1.20
2023-04-28T12:23:03.466Z,1.20
2023-04-28T12:25:34.218Z,2.00
2023-04-28T12:28:04.300Z,1.83
2023-04-28T12:30:35.360Z,1.73
2023-04-28T12:33:02.175Z,1.60
2023-04-28T12:35:29.667Z,1.50
2023-04-28T12:37:58.783Z,2.10
2023-04-28T12:40:26.242Z,3.42
2023-04-28T12:42:53.336Z,1.88
2023-04-28T12:45:20.198Z,1.20
2023-04-28T12:47:48.416Z,1.40
2023-04-28T12:50:15.241Z,0.88
2023-04-28T12:52:41.982Z,0.65
2023-04-28T12:55:09.108Z,0.50
2023-04-28T12:57:39.015Z,1.38
2023-04-28T13:00:07.843Z,4.07
2023-04-28T13:02:35.320Z,1.35
2023-04-28T13:05:03.063Z,2.83
2023-04-28T13:07:30.695Z,1.23
2023-04-28T13:09:57.573Z,0.70
2023-04-28T13:12:24.350Z,0.77
2023-04-28T13:14:51.194Z,0.57
2023-04-28T13:17:18.012Z,1.00
2023-04-28T13:19:45.108Z,0.70
2023-04-28T13:22:12.664Z,0.40
2023-04-28T13:24:39.512Z,0.52
2023-04-28T13:27:10.265Z,1.50
2023-04-28T13:29:37.518Z,0.50
2023-04-28T13:32:06.015Z,0.85
2023-04-28T13:34:33.335Z,0.63
2023-04-28T13:37:00.131Z,0.98
2023-04-28T13:39:26.848Z,0.73
2023-04-28T13:41:53.577Z,0.88
2023-04-28T13:44:20.352Z,0.75
2023-04-28T13:46:47.401Z,0.60
2023-04-28T13:49:14.165Z,2.13
2023-04-28T13:51:41.356Z,2.55
2023-04-28T13:54:09.048Z,2.00
2023-04-28T13:56:36.762Z,1.30
2023-04-28T13:59:04.094Z,2.47
2023-04-28T14:01:31.032Z,1.48
2023-04-28T14:03:58.201Z,1.60
2023-04-28T14:06:25.094Z,0.88
2023-04-28T14:08:52.075Z,1.02
2023-04-28T14:11:18.756Z,0.70
2023-04-28T14:13:45.665Z,0.82
2023-04-28T14:16:12.466Z,0.98
2023-04-28T14:18:39.751Z,0.98
2023-04-28T14:21:08.601Z,0.93
2023-04-28T14:23:36.088Z,1.23
2023-04-28T14:26:03.276Z,1.10
2023-04-28T14:28:30.137Z,1.17
2023-04-28T14:30:57.318Z,0.77
2023-04-28T14:33:24.857Z,1.27
2023-04-28T14:35:52.161Z,1.20
2023-04-28T14:38:18.985Z,0.88
2023-04-28T14:40:45.983Z,0.73
2023-04-28T14:43:14.160Z,0.63
2023-04-28T14:45:41.045Z,0.60
2023-04-28T14:48:08.100Z,1.08
2023-04-28T14:50:35.200Z,0.85
2023-04-28T14:53:05.713Z,0.88
2023-04-28T14:55:33.519Z,1.05
2023-04-28T14:58:00.286Z,1.00
2023-04-28T15:00:27.017Z,0.90
2023-04-28T15:02:54.368Z,1.15
2023-04-28T15:05:21.300Z,1.10
2023-04-28T15:07:48.050Z,0.80
2023-04-28T15:10:15.413Z,1.27
2023-04-28T15:12:42.769Z,1.35
2023-04-28T15:15:09.926Z,0.93
2023-04-28T15:17:36.658Z,0.95
2023-04-28T15:20:04.841Z,0.88
2023-04-28T15:22:31.702Z,1.23
2023-04-28T15:24:58.456Z,1.00
2023-04-28T15:27:25.189Z,0.88
2023-04-28T15:29:51.874Z,0.82
2023-04-28T15:32:19.225Z,1.08
2023-04-28T15:34:46.319Z,1.00
2023-04-28T15:37:38.114Z,1.08
2023-04-28T15:40:09.392Z,1.20
2023-04-28T15:42:36.350Z,0.90
2023-04-28T15:45:03.635Z,1.20
2023-04-28T15:47:31.186Z,1.10
2023-04-28T15:49:59.332Z,1.13
2023-04-28T15:52:27.273Z,2.90
2023-04-28T15:54:56.025Z,1.60
2023-04-28T15:57:23.024Z,1.80
2023-04-28T15:59:51.797Z,3.65
2023-04-28T16:02:18.950Z,3.17
2023-04-28T16:04:47.108Z,1.75
2023-04-28T16:07:14.197Z,1.85
2023-04-28T16:09:40.980Z,0.50
2023-04-28T16:12:07.679Z,0.65
2023-04-28T16:14:35.106Z,0.60
2023-04-28T16:17:01.889Z,0.77
2023-04-28T16:19:28.676Z,0.50
2023-04-28T16:21:55.356Z,0.73
2023-04-28T16:24:22.739Z,0.60
2023-04-28T16:26:51.116Z,0.60
2023-04-28T16:29:17.990Z,0.85
2023-04-28T16:31:45.229Z,0.63
2023-04-28T16:34:12.500Z,0.73
2023-04-28T16:36:40.310Z,0.85
2023-04-28T16:39:07.213Z,0.80
2023-04-28T16:41:33.919Z,1.48
2023-04-28T16:44:00.601Z,1.02
2023-04-28T16:46:27.415Z,1.35
2023-04-28T16:48:54.168Z,1.58
2023-04-28T16:51:22.213Z,1.45
2023-04-28T16:53:48.946Z,1.55
2023-04-28T16:56:15.674Z,1.13
2023-04-28T16:58:42.588Z,1.30
2023-04-28T17:01:09.583Z,1.00
2023-04-28T17:03:41.757Z,0.50
2023-04-28T17:06:09.207Z,0.88
2023-04-28T17:08:36.051Z,0.50
2023-04-28T17:11:04.426Z,0.52
2023-04-28T17:13:34.227Z,0.50
2023-04-28T17:16:01.421Z,0.57
2023-04-28T17:18:28.453Z,0.52
2023-04-28T17:20:56.129Z,0.88
2023-04-28T17:23:22.910Z,0.55
2023-04-28T17:25:49.640Z,0.45
2023-04-28T17:28:16.424Z,0.60
2023-04-28T17:30:47.122Z,1.63
2023-04-28T17:33:14.457Z,0.65
2023-04-28T17:35:41.158Z,0.82
2023-04-28T17:38:07.851Z,0.40
2023-04-28T17:40:34.769Z,1.55
2023-04-28T17:43:01.804Z,0.98
2023-04-28T17:45:28.664Z,0.57
2023-04-28T17:47:57.889Z,1.35
2023-04-28T17:50:25.971Z,2.75
2023-04-28T17:52:52.888Z,3.03
2023-04-28T17:55:19.637Z,6.30
2023-04-28T17:57:46.436Z,5.28
2023-04-28T18:00:13.801Z,5.80
2023-04-28T18:02:40.987Z,5.78
2023-04-28T18:05:08.201Z,3.42
2023-04-28T18:07:34.989Z,2.25
2023-04-28T18:10:01.827Z,1.45
2023-04-28T18:12:28.584Z,3.35
2023-04-28T18:14:55.492Z,2.70
2023-04-28T18:17:23.395Z,2.28
2023-04-28T18:19:52.404Z,2.47
2023-04-28T18:22:19.183Z,2.88
2023-04-28T18:24:46.210Z,2.70
2023-04-28T18:27:12.968Z,3.20
2023-04-28T18:29:39.690Z,2.85
2023-04-28T18:32:06.946Z,2.72
2023-04-28T18:34:33.791Z,3.33
2023-04-28T18:37:00.616Z,3.20
2023-04-28T18:39:27.668Z,2.30
2023-04-28T18:41:54.385Z,2.00
2023-04-28T18:44:21.716Z,2.53
2023-04-28T18:46:48.452Z,2.08
2023-04-28T18:49:15.329Z,1.98
2023-04-28T18:51:42.267Z,1.83
2023-04-28T18:54:09.045Z,1.80
2023-04-28T18:56:36.569Z,1.92
2023-04-28T18:59:04.575Z,2.42
2023-04-28T19:01:31.712Z,2.42
2023-04-28T19:03:58.658Z,2.00
2023-04-28T19:06:25.796Z,2.10
2023-04-28T19:08:52.486Z,2.90
2023-04-28T19:11:19.178Z,2.63
2023-04-28T19:13:45.907Z,3.30
2023-04-28T19:16:13.345Z,3.30
2023-04-28T19:18:42.132Z,2.97
2023-04-28T19:21:11.829Z,2.97
2023-04-28T19:23:41.948Z,3.80
2023-04-28T19:26:09.449Z,3.10
2023-04-28T19:28:36.213Z,3.30
2023-04-28T19:31:03.128Z,3.45
2023-04-28T19:33:29.926Z,3.78
2023-04-28T19:35:56.892Z,3.70
2023-04-28T19:38:24.202Z,3.88
2023-04-28T19:40:52.278Z,4.75
2023-04-28T19:43:19.301Z,4.65
2023-04-28T19:45:46.844Z,4.15
2023-04-28T19:48:14.682Z,4.38
2023-04-28T19:50:42.373Z,4.82
2023-04-28T19:53:09.624Z,4.88
2023-04-28T19:55:37.089Z,4.72
2023-04-28T19:58:04.274Z,5.38
2023-04-28T20:00:32.409Z,4.70
2023-04-28T20:03:00.326Z,5.28
2023-04-28T20:05:27.570Z,4.90
2023-04-28T20:07:56.239Z,5.57
2023-04-28T20:10:23.930Z,4.63
2023-04-28T20:12:50.779Z,5.93
2023-04-28T20:15:18.659Z,4.57
2023-04-28T20:17:46.115Z,4.68
2023-04-28T20:20:13.140Z,4.80
2023-04-28T20:22:41.211Z,5.05
2023-04-28T20:25:10.604Z,4.22
2023-04-28T20:27:37.588Z,5.78
2023-04-28T20:30:05.112Z,4.88
2023-04-28T20:32:31.959Z,5.65
2023-04-28T20:34:58.768Z,5.03
2023-04-28T20:37:26.621Z,4.05
2023-04-28T20:39:53.619Z,5.07
2023-04-28T20:42:20.337Z,5.43
2023-04-28T20:44:47.123Z,5.85
2023-04-28T20:47:14.303Z,6.47
2023-04-28T20:49:41.194Z,5.60
2023-04-28T20:52:08.423Z,6.60
2023-04-28T20:54:36.310Z,5.53
2023-04-28T20:57:06.871Z,5.55
2023-04-28T20:59:33.685Z,6.35
2023-04-28T21:02:00.637Z,5.82
2023-04-28T21:04:28.516Z,6.40
2023-04-28T21:06:55.790Z,7.22
2023-04-28T21:09:25.360Z,6.95
2023-04-28T21:11:52.393Z,8.05
2023-04-28T21:14:19.215Z,6.80
2023-04-28T21:16:46.041Z,5.93
2023-04-28T21:19:12.965Z,6.07
2023-04-28T21:21:39.920Z,6.03
2023-04-28T21:24:08.152Z,6.45
2023-04-28T21:26:36.015Z,5.53
2023-04-28T21:29:03.025Z,5.38
2023-04-28T21:31:30.783Z,4.65
2023-04-28T21:33:57.809Z,4.80
2023-04-28T21:36:24.693Z,4.93
2023-04-28T21:38:51.626Z,5.45
2023-04-28T21:41:18.348Z,4.68
2023-04-28T21:43:45.004Z,4.50
2023-04-28T21:46:13.288Z,4.60
2023-04-28T21:48:40.101Z,5.80
2023-04-28T21:51:06.794Z,4.57
2023-04-28T21:53:33.620Z,5.13
2023-04-28T21:56:00.368Z,4.65
2023-04-28T21:58:27.281Z,4.32
2023-04-28T22:00:55.259Z,4.70
2023-04-28T22:03:22.297Z,6.80
2023-04-28T22:05:49.235Z,4.38
2023-04-28T22:08:17.275Z,4.88
2023-04-28T22:10:45.757Z,5.22
2023-04-28T22:13:16.080Z,5.43
2023-04-28T22:18:10.105Z,4.63
2023-04-28T22:20:36.951Z,6.28
2023-04-28T22:23:03.706Z,5.70
2023-04-28T22:25:30.393Z,4.97
2023-04-28T22:27:57.323Z,4.97
2023-04-28T22:30:25.965Z,4.68
2023-04-28T22:32:53.321Z,5.68
2023-04-28T22:35:20.126Z,4.72
2023-04-28T22:37:47.055Z,4.80
2023-04-28T22:40:13.926Z,4.50
2023-04-28T22:42:41.912Z,5.47
2023-04-28T22:45:10.522Z,5.38
2023-04-28T22:47:38.752Z,4.97
2023-04-28T22:50:06.684Z,4.47
2023-04-28T22:52:34.294Z,4.35
2023-04-28T22:55:01.363Z,4.10
2023-04-28T22:57:28.273Z,4.63
2023-04-28T22:59:55.046Z,4.03
2023-04-28T23:02:23.234Z,4.80
2023-04-28T23:04:50.541Z,4.10
2023-04-28T23:07:17.525Z,4.18
2023-04-28T23:09:44.237Z,4.45
2023-04-28T23:12:10.979Z,4.18
2023-04-28T23:14:38.314Z,4.63
2023-04-28T23:17:05.247Z,4.47
2023-04-28T23:19:31.970Z,4.20
2023-04-28T23:21:58.679Z,4.30
2023-04-28T23:24:26.775Z,4.43
2023-04-28T23:26:53.509Z,4.43
2023-04-28T23:29:20.300Z,4.47
2023-04-28T23:31:52.595Z,4.35
2023-04-28T23:34:19.539Z,3.97
2023-04-28T23:36:46.344Z,4.25
2023-04-28T23:39:13.191Z,4.20
2023-04-28T23:41:39.924Z,4.57
2023-04-28T23:44:06.640Z,5.03
2023-04-28T23:46:33.694Z,5.20
2023-04-28T23:49:00.376Z,5.18
2023-04-28T23:51:27.080Z,4.85
2023-04-28T23:53:53.854Z,5.35
2023-04-28T23:56:20.614Z,4.95
2023-04-28T23:58:47.388Z,5.75
